sensor_id;sensor_type;location;lat;lon;timestamp;pressure;altitude;pressure_sealevel;temperature;humidity
30516;BME280;17297;54.022;10.760;2022-12-07T00:01:15;101070.88;;;5.95;70.31
30516;BME280;17297;54.022;10.760;2022-12-07T00:03:42;101067.19;;;5.96;70.20
30516;BME280;17297;54.022;10.760;2022-12-07T00:06:10;101060.00;;;5.97;70.34
30516;BME280;17297;54.022;10.760;2022-12-07T00:08:37;101064.34;;;5.98;70.37
30516;BME280;17297;54.022;10.760;2022-12-07T00:11:03;101059.00;;;5.98;70.30
30516;BME280;17297;54.022;10.760;2022-12-07T00:13:30;101048.31;;;5.98;70.29
30516;BME280;17297;54.022;10.760;2022-12-07T00:15:55;101048.00;;;6.01;70.57
30516;BME280;17297;54.022;10.760;2022-12-07T00:18:21;101036.50;;;6.00;70.19
30516;BME280;17297;54.022;10.760;2022-12-07T00:20:46;101027.50;;;6.01;70.15
30516;BME280;17297;54.022;10.760;2022-12-07T00:23:11;101033.69;;;6.02;70.34
30516;BME280;17297;54.022;10.760;2022-12-07T00:25:37;101029.19;;;6.03;70.45
30516;BME280;17297;54.022;10.760;2022-12-07T00:28:02;101019.34;;;6.03;70.35
30516;BME280;17297;54.022;10.760;2022-12-07T00:30:27;101013.16;;;6.03;70.41
30516;BME280;17297;54.022;10.760;2022-12-07T00:32:53;101006.97;;;6.02;70.19
30516;BME280;17297;54.022;10.760;2022-12-07T00:35:18;101011.50;;;6.01;70.40
30516;BME280;17297;54.022;10.760;2022-12-07T00:37:43;101009.66;;;6.02;70.44
30516;BME280;17297;54.022;10.760;2022-12-07T00:40:09;101009.66;;;6.02;70.42
30516;BME280;17297;54.022;10.760;2022-12-07T00:42:34;101014.16;;;6.01;70.36
30516;BME280;17297;54.022;10.760;2022-12-07T00:45:00;101008.66;;;6.03;70.47
30516;BME280;17297;54.022;10.760;2022-12-07T00:47:25;101009.47;;;6.04;70.32
30516;BME280;17297;54.022;10.760;2022-12-07T00:49:51;101010.16;;;6.06;70.36
30516;BME280;17297;54.022;10.760;2022-12-07T00:52:16;101001.31;;;6.05;70.41
30516;BME280;17297;54.022;10.760;2022-12-07T00:54:41;101000.19;;;6.08;70.44
30516;BME280;17297;54.022;10.760;2022-12-07T00:57:07;100987.66;;;6.08;70.44
30516;BME280;17297;54.022;10.760;2022-12-07T00:59:32;100992.00;;;6.09;70.45
30516;BME280;17297;54.022;10.760;2022-12-07T01:01:57;100994.53;;;6.11;70.44
30516;BME280;17297;54.022;10.760;2022-12-07T01:04:23;100994.34;;;6.12;70.66
30516;BME280;17297;54.022;10.760;2022-12-07T01:06:48;100980.84;;;6.14;70.67
30516;BME280;17297;54.022;10.760;2022-12-07T01:09:13;100988.56;;;6.17;70.72
30516;BME280;17297;54.022;10.760;2022-12-07T01:11:39;100981.19;;;6.19;70.68
30516;BME280;17297;54.022;10.760;2022-12-07T01:14:04;100984.88;;;6.18;70.75
30516;BME280;17297;54.022;10.760;2022-12-07T01:16:31;100970.38;;;6.20;70.63
30516;BME280;17297;54.022;10.760;2022-12-07T01:18:57;100974.53;;;6.23;70.57
30516;BME280;17297;54.022;10.760;2022-12-07T01:21:26;100968.34;;;6.22;70.63
30516;BME280;17297;54.022;10.760;2022-12-07T01:23:52;100972.53;;;6.25;70.81
30516;BME280;17297;54.022;10.760;2022-12-07T01:26:23;100968.88;;;6.26;70.89
30516;BME280;17297;54.022;10.760;2022-12-07T01:28:49;100967.88;;;6.27;70.82
30516;BME280;17297;54.022;10.760;2022-12-07T01:31:20;100968.72;;;6.28;70.70
30516;BME280;17297;54.022;10.760;2022-12-07T01:33:48;100958.03;;;6.28;70.91
30516;BME280;17297;54.022;10.760;2022-12-07T01:36:18;100965.03;;;6.29;70.97
30516;BME280;17297;54.022;10.760;2022-12-07T01:38:44;100956.88;;;6.30;70.96
30516;BME280;17297;54.022;10.760;2022-12-07T01:41:10;100950.72;;;6.30;70.87
30516;BME280;17297;54.022;10.760;2022-12-07T01:43:36;100949.84;;;6.29;70.95
30516;BME280;17297;54.022;10.760;2022-12-07T01:46:04;100952.53;;;6.29;70.80
30516;BME280;17297;54.022;10.760;2022-12-07T01:48:35;100956.88;;;6.30;70.81
30516;BME280;17297;54.022;10.760;2022-12-07T01:51:05;100954.22;;;6.30;71.01
30516;BME280;17297;54.022;10.760;2022-12-07T01:53:36;100950.72;;;6.30;70.92
30516;BME280;17297;54.022;10.760;2022-12-07T01:56:02;100954.22;;;6.30;71.00
30516;BME280;17297;54.022;10.760;2022-12-07T01:58:28;100950.53;;;6.31;70.93
30516;BME280;17297;54.022;10.760;2022-12-07T02:00:54;100941.38;;;6.34;70.87
30516;BME280;17297;54.022;10.760;2022-12-07T02:03:30;100949.38;;;6.34;70.98
30516;BME280;17297;54.022;10.760;2022-12-07T02:05:57;100944.72;;;6.36;70.95
30516;BME280;17297;54.022;10.760;2022-12-07T02:08:25;100946.22;;;6.38;71.16
30516;BME280;17297;54.022;10.760;2022-12-07T02:10:50;100939.72;;;6.41;71.02
30516;BME280;17297;54.022;10.760;2022-12-07T02:13:19;100939.72;;;6.41;71.04
30516;BME280;17297;54.022;10.760;2022-12-07T02:18:52;100933.06;;;6.45;71.33
30516;BME280;17297;54.022;10.760;2022-12-07T02:21:34;100935.56;;;6.46;71.12
30516;BME280;17297;54.022;10.760;2022-12-07T02:24:28;100933.59;;;6.48;71.32
30516;BME280;17297;54.022;10.760;2022-12-07T02:29:50;100927.91;;;6.52;71.26
30516;BME280;17297;54.022;10.760;2022-12-07T02:35:07;100937.44;;;6.54;71.18
30516;BME280;17297;54.022;10.760;2022-12-07T02:37:39;100935.44;;;6.56;71.22
30516;BME280;17297;54.022;10.760;2022-12-07T02:42:42;100925.41;;;6.58;71.23
30516;BME280;17297;54.022;10.760;2022-12-07T02:45:13;100917.22;;;6.60;71.36
30516;BME280;17297;54.022;10.760;2022-12-07T02:47:41;100918.91;;;6.61;71.16
30516;BME280;17297;54.022;10.760;2022-12-07T02:50:08;100914.41;;;6.61;71.34
30516;BME280;17297;54.022;10.760;2022-12-07T02:52:34;100909.91;;;6.62;71.37
30516;BME280;17297;54.022;10.760;2022-12-07T02:54:59;100916.91;;;6.63;71.33
30516;BME280;17297;54.022;10.760;2022-12-07T02:57:53;100915.25;;;6.62;71.24
30516;BME280;17297;54.022;10.760;2022-12-07T03:00:20;100924.09;;;6.62;71.52
30516;BME280;17297;54.022;10.760;2022-12-07T03:02:52;100912.72;;;6.60;71.22
30516;BME280;17297;54.022;10.760;2022-12-07T03:05:43;100914.41;;;6.61;71.33
30516;BME280;17297;54.022;10.760;2022-12-07T03:11:08;100911.88;;;6.60;71.29
30516;BME280;17297;54.022;10.760;2022-12-07T03:16:19;100913.56;;;6.61;71.48
30516;BME280;17297;54.022;10.760;2022-12-07T03:18:57;100918.25;;;6.59;71.59
30516;BME280;17297;54.022;10.760;2022-12-07T03:21:31;100915.56;;;6.59;71.43
30516;BME280;17297;54.022;10.760;2022-12-07T03:24:00;100918.91;;;6.61;71.37
30516;BME280;17297;54.022;10.760;2022-12-07T03:26:32;100917.22;;;6.60;71.31
30516;BME280;17297;54.022;10.760;2022-12-07T03:29:02;100919.06;;;6.59;71.26
30516;BME280;17297;54.022;10.760;2022-12-07T03:31:33;100911.06;;;6.59;71.39
30516;BME280;17297;54.022;10.760;2022-12-07T03:34:15;100910.38;;;6.57;71.35
30516;BME280;17297;54.022;10.760;2022-12-07T03:37:02;100913.03;;;6.57;71.45
30516;BME280;17297;54.022;10.760;2022-12-07T03:39:46;100917.56;;;6.57;71.28
30516;BME280;17297;54.022;10.760;2022-12-07T03:42:13;100916.72;;;6.56;71.51
30516;BME280;17297;54.022;10.760;2022-12-07T03:44:40;100915.88;;;6.56;71.39
30516;BME280;17297;54.022;10.760;2022-12-07T03:47:12;100915.88;;;6.56;71.53
30516;BME280;17297;54.022;10.760;2022-12-07T03:49:50;100915.88;;;6.56;71.31
30516;BME280;17297;54.022;10.760;2022-12-07T03:55:11;100914.38;;;6.53;71.27
30516;BME280;17297;54.022;10.760;2022-12-07T03:57:41;100911.88;;;6.52;71.42
30516;BME280;17297;54.022;10.760;2022-12-07T04:00:09;100908.19;;;6.53;71.44
30516;BME280;17297;54.022;10.760;2022-12-07T04:02:38;100917.22;;;6.52;71.43
30516;BME280;17297;54.022;10.760;2022-12-07T04:05:04;100917.22;;;6.52;71.36
30516;BME280;17297;54.022;10.760;2022-12-07T04:07:29;100906.69;;;6.50;71.40
30516;BME280;17297;54.022;10.760;2022-12-07T04:09:55;100907.50;;;6.51;71.42
30516;BME280;17297;54.022;10.760;2022-12-07T04:12:21;100904.84;;;6.51;71.45
30516;BME280;17297;54.022;10.760;2022-12-07T04:14:46;100902.34;;;6.49;71.43
30516;BME280;17297;54.022;10.760;2022-12-07T04:17:12;100901.34;;;6.50;71.42
30516;BME280;17297;54.022;10.760;2022-12-07T04:19:37;100905.84;;;6.50;71.27
30516;BME280;17297;54.022;10.760;2022-12-07T04:22:04;100910.34;;;6.49;71.23
30516;BME280;17297;54.022;10.760;2022-12-07T04:24:29;100916.72;;;6.48;71.16
30516;BME280;17297;54.022;10.760;2022-12-07T04:26:55;100910.50;;;6.47;71.28
30516;BME280;17297;54.022;10.760;2022-12-07T04:29:21;100915.84;;;6.47;71.39
30516;BME280;17297;54.022;10.760;2022-12-07T04:31:46;100913.19;;;6.47;71.36
30516;BME280;17297;54.022;10.760;2022-12-07T04:34:15;100913.34;;;6.46;71.13
30516;BME280;17297;54.022;10.760;2022-12-07T04:36:41;100911.50;;;6.46;71.28
30516;BME280;17297;54.022;10.760;2022-12-07T04:39:08;100922.22;;;6.46;71.43
30516;BME280;17297;54.022;10.760;2022-12-07T04:41:38;100922.22;;;6.46;71.26
30516;BME280;17297;54.022;10.760;2022-12-07T04:44:03;100919.72;;;6.45;71.27
30516;BME280;17297;54.022;10.760;2022-12-07T04:46:31;100925.88;;;6.45;71.42
30516;BME280;17297;54.022;10.760;2022-12-07T04:48:57;100923.34;;;6.44;71.18
30516;BME280;17297;54.022;10.760;2022-12-07T04:51:25;100920.88;;;6.42;71.24
30516;BME280;17297;54.022;10.760;2022-12-07T04:53:51;100921.84;;;6.41;71.09
30516;BME280;17297;54.022;10.760;2022-12-07T04:56:18;100921.84;;;6.41;71.04
30516;BME280;17297;54.022;10.760;2022-12-07T04:58:45;100917.69;;;6.39;71.11
30516;BME280;17297;54.022;10.760;2022-12-07T05:01:11;100917.81;;;6.37;71.19
30516;BME280;17297;54.022;10.760;2022-12-07T05:03:37;100921.50;;;6.36;71.22
30516;BME280;17297;54.022;10.760;2022-12-07T05:06:03;100931.50;;;6.34;71.22
30516;BME280;17297;54.022;10.760;2022-12-07T05:08:28;100933.50;;;6.32;71.22
30516;BME280;17297;54.022;10.760;2022-12-07T05:10:53;100933.66;;;6.31;71.00
30516;BME280;17297;54.022;10.760;2022-12-07T05:13:19;100932.16;;;6.28;71.16
30516;BME280;17297;54.022;10.760;2022-12-07T05:15:44;100924.47;;;6.25;71.03
30516;BME280;17297;54.022;10.760;2022-12-07T05:18:11;100927.44;;;6.22;70.94
30516;BME280;17297;54.022;10.760;2022-12-07T05:20:38;100926.78;;;6.20;70.78
30516;BME280;17297;54.022;10.760;2022-12-07T05:23:04;100925.28;;;6.17;70.87
30516;BME280;17297;54.022;10.760;2022-12-07T05:25:29;100915.75;;;6.15;70.93
30516;BME280;17297;54.022;10.760;2022-12-07T05:27:55;100923.91;;;6.13;70.87
30516;BME280;17297;54.022;10.760;2022-12-07T05:30:22;100927.75;;;6.11;71.09
30516;BME280;17297;54.022;10.760;2022-12-07T05:32:47;100927.75;;;6.11;71.06
30516;BME280;17297;54.022;10.760;2022-12-07T05:35:12;100938.44;;;6.11;71.01
30516;BME280;17297;54.022;10.760;2022-12-07T05:37:38;100921.72;;;6.09;71.09
30516;BME280;17297;54.022;10.760;2022-12-07T05:40:04;100925.22;;;6.09;71.12
30516;BME280;17297;54.022;10.760;2022-12-07T05:42:30;100928.91;;;6.08;70.90
30516;BME280;17297;54.022;10.760;2022-12-07T05:44:55;100936.91;;;6.08;70.89
30516;BME280;17297;54.022;10.760;2022-12-07T05:47:20;100944.91;;;6.08;70.89
30516;BME280;17297;54.022;10.760;2022-12-07T05:49:46;100947.59;;;6.08;70.85
30516;BME280;17297;54.022;10.760;2022-12-07T05:52:11;100938.06;;;6.06;70.81
30516;BME280;17297;54.022;10.760;2022-12-07T05:54:37;100933.88;;;6.03;70.90
30516;BME280;17297;54.022;10.760;2022-12-07T05:57:02;100938.38;;;6.03;70.79
30516;BME280;17297;54.022;10.760;2022-12-07T05:59:27;100932.53;;;5.99;70.72
30516;BME280;17297;54.022;10.760;2022-12-07T06:02:02;100924.97;;;5.94;70.75
30516;BME280;17297;54.022;10.760;2022-12-07T06:04:33;100934.28;;;5.90;70.65
30516;BME280;17297;54.022;10.760;2022-12-07T06:06:59;100933.91;;;5.85;70.51
30516;BME280;17297;54.022;10.760;2022-12-07T06:09:26;100936.22;;;5.80;70.50
30516;BME280;17297;54.022;10.760;2022-12-07T06:11:51;100942.00;;;5.75;70.39
30516;BME280;17297;54.022;10.760;2022-12-07T06:14:35;100935.47;;;5.70;70.49
30516;BME280;17297;54.022;10.760;2022-12-07T06:17:01;100939.44;;;5.66;70.36
30516;BME280;17297;54.022;10.760;2022-12-07T06:19:26;100936.94;;;5.64;70.66
30516;BME280;17297;54.022;10.760;2022-12-07T06:21:52;100932.75;;;5.62;70.52
30516;BME280;17297;54.022;10.760;2022-12-07T06:24:17;100942.59;;;5.61;70.50
30516;BME280;17297;54.022;10.760;2022-12-07T06:26:44;100939.25;;;5.59;70.77
30516;BME280;17297;54.022;10.760;2022-12-07T06:29:10;100935.72;;;5.59;70.57
30516;BME280;17297;54.022;10.760;2022-12-07T06:31:36;100934.22;;;5.56;70.63
30516;BME280;17297;54.022;10.760;2022-12-07T06:34:04;100928.19;;;5.54;70.53
30516;BME280;17297;54.022;10.760;2022-12-07T06:36:30;100927.34;;;5.53;70.44
30516;BME280;17297;54.022;10.760;2022-12-07T06:38:56;100935.66;;;5.50;70.50
30516;BME280;17297;54.022;10.760;2022-12-07T06:41:21;100940.47;;;5.47;70.55
30516;BME280;17297;54.022;10.760;2022-12-07T06:43:47;100936.16;;;5.46;70.51
30516;BME280;17297;54.022;10.760;2022-12-07T06:46:13;100945.97;;;5.45;70.57
30516;BME280;17297;54.022;10.760;2022-12-07T06:48:40;100948.78;;;5.44;70.52
30516;BME280;17297;54.022;10.760;2022-12-07T06:51:05;100936.44;;;5.43;70.47
30516;BME280;17297;54.022;10.760;2022-12-07T06:53:31;100940.09;;;5.42;70.58
30516;BME280;17297;54.022;10.760;2022-12-07T06:55:56;100941.09;;;5.41;70.57
30516;BME280;17297;54.022;10.760;2022-12-07T06:58:21;100936.75;;;5.40;70.66
30516;BME280;17297;54.022;10.760;2022-12-07T07:00:48;100943.75;;;5.41;70.60
30516;BME280;17297;54.022;10.760;2022-12-07T07:03:15;100939.44;;;5.40;70.55
30516;BME280;17297;54.022;10.760;2022-12-07T07:05:41;100938.59;;;5.39;70.45
30516;BME280;17297;54.022;10.760;2022-12-07T07:08:07;100941.41;;;5.38;70.51
30516;BME280;17297;54.022;10.760;2022-12-07T07:10:32;100940.56;;;5.37;70.45
30516;BME280;17297;54.022;10.760;2022-12-07T07:12:57;100945.91;;;5.37;70.71
30516;BME280;17297;54.022;10.760;2022-12-07T07:15:23;100937.06;;;5.37;70.44
30516;BME280;17297;54.022;10.760;2022-12-07T07:17:49;100939.75;;;5.37;70.44
30516;BME280;17297;54.022;10.760;2022-12-07T07:20:14;100942.41;;;5.37;70.43
30516;BME280;17297;54.022;10.760;2022-12-07T07:22:41;100952.25;;;5.36;70.54
30516;BME280;17297;54.022;10.760;2022-12-07T07:25:07;100945.06;;;5.37;70.39
30516;BME280;17297;54.022;10.760;2022-12-07T07:27:32;100941.56;;;5.36;70.56
30516;BME280;17297;54.022;10.760;2022-12-07T07:29:57;100951.25;;;5.37;70.55
30516;BME280;17297;54.022;10.760;2022-12-07T07:32:23;100939.75;;;5.37;70.43
30516;BME280;17297;54.022;10.760;2022-12-07T07:34:48;100945.06;;;5.37;70.33
30516;BME280;17297;54.022;10.760;2022-12-07T07:37:14;100952.91;;;5.38;70.45
30516;BME280;17297;54.022;10.760;2022-12-07T07:39:40;100950.25;;;5.38;70.64
30516;BME280;17297;54.022;10.760;2022-12-07T07:42:05;100952.91;;;5.38;70.44
30516;BME280;17297;54.022;10.760;2022-12-07T07:44:32;100953.59;;;5.40;70.56
30516;BME280;17297;54.022;10.760;2022-12-07T07:46:57;100952.28;;;5.44;70.75
30516;BME280;17297;54.022;10.760;2022-12-07T07:49:23;100953.19;;;5.53;70.78
30516;BME280;17297;54.022;10.760;2022-12-07T07:51:49;100950.81;;;5.68;70.70
30516;BME280;17297;54.022;10.760;2022-12-07T07:54:15;100942.22;;;5.82;70.77
30516;BME280;17297;54.022;10.760;2022-12-07T07:56:40;100945.50;;;5.94;70.42
30516;BME280;17297;54.022;10.760;2022-12-07T07:59:05;100953.78;;;6.09;70.58
30516;BME280;17297;54.022;10.760;2022-12-07T08:01:31;100953.69;;;6.27;70.42
30516;BME280;17297;54.022;10.760;2022-12-07T08:03:56;100949.44;;;6.42;70.14
30516;BME280;17297;54.022;10.760;2022-12-07T08:06:22;100940.13;;;6.54;69.92
30516;BME280;17297;54.022;10.760;2022-12-07T08:08:48;100943.63;;;6.63;69.55
30516;BME280;17297;54.022;10.760;2022-12-07T08:11:13;100939.97;;;6.64;69.46
30516;BME280;17297;54.022;10.760;2022-12-07T08:13:38;100937.63;;;6.61;69.06
30516;BME280;17297;54.022;10.760;2022-12-07T08:16:06;100941.94;;;6.54;69.02
30516;BME280;17297;54.022;10.760;2022-12-07T08:18:36;100937.56;;;6.44;69.22
30516;BME280;17297;54.022;10.760;2022-12-07T08:21:02;100937.53;;;6.36;69.08
30516;BME280;17297;54.022;10.760;2022-12-07T08:23:28;100936.34;;;6.31;69.33
30516;BME280;17297;54.022;10.760;2022-12-07T08:25:54;100942.31;;;6.24;69.18
30516;BME280;17297;54.022;10.760;2022-12-07T08:28:19;100944.63;;;6.19;69.36
30516;BME280;17297;54.022;10.760;2022-12-07T08:30:45;100936.28;;;6.14;69.55
30516;BME280;17297;54.022;10.760;2022-12-07T08:33:10;100943.78;;;6.11;69.58
30516;BME280;17297;54.022;10.760;2022-12-07T08:35:36;100948.56;;;6.07;69.55
30516;BME280;17297;54.022;10.760;2022-12-07T08:38:02;100941.56;;;6.06;69.58
30516;BME280;17297;54.022;10.760;2022-12-07T08:40:27;100940.56;;;6.07;69.58
30516;BME280;17297;54.022;10.760;2022-12-07T08:42:53;100946.91;;;6.06;69.61
30516;BME280;17297;54.022;10.760;2022-12-07T08:45:20;100937.38;;;6.04;69.52
30516;BME280;17297;54.022;10.760;2022-12-07T08:48:18;100943.72;;;6.03;69.80
30516;BME280;17297;54.022;10.760;2022-12-07T08:50:47;100943.03;;;6.00;69.56
30516;BME280;17297;54.022;10.760;2022-12-07T08:53:13;100940.69;;;5.97;69.51
30516;BME280;17297;54.022;10.760;2022-12-07T08:55:39;100942.50;;;5.97;69.69
30516;BME280;17297;54.022;10.760;2022-12-07T08:58:04;100941.00;;;5.94;69.61
30516;BME280;17297;54.022;10.760;2022-12-07T09:00:29;100941.00;;;5.94;69.55
30516;BME280;17297;54.022;10.760;2022-12-07T09:02:55;100947.34;;;5.93;69.50
30516;BME280;17297;54.022;10.760;2022-12-07T09:05:20;100942.81;;;5.94;69.79
30516;BME280;17297;54.022;10.760;2022-12-07T09:07:50;100941.00;;;5.94;69.75
30516;BME280;17297;54.022;10.760;2022-12-07T09:10:16;100948.16;;;5.94;69.76
30516;BME280;17297;54.022;10.760;2022-12-07T09:12:41;100945.50;;;5.94;69.65
30516;BME280;17297;54.022;10.760;2022-12-07T09:15:07;100944.50;;;5.95;69.87
30516;BME280;17297;54.022;10.760;2022-12-07T09:17:34;100939.16;;;5.95;69.72
30516;BME280;17297;54.022;10.760;2022-12-07T09:20:00;100945.34;;;5.95;69.59
30516;BME280;17297;54.022;10.760;2022-12-07T09:22:29;100947.03;;;5.96;69.60
30516;BME280;17297;54.022;10.760;2022-12-07T09:24:56;100947.84;;;5.97;69.64
30516;BME280;17297;54.022;10.760;2022-12-07T09:27:22;100947.72;;;5.98;69.65
30516;BME280;17297;54.022;10.760;2022-12-07T09:29:47;100945.88;;;5.99;69.67
30516;BME280;17297;54.022;10.760;2022-12-07T09:32:13;100942.19;;;6.00;69.72
30516;BME280;17297;54.022;10.760;2022-12-07T09:34:38;100943.88;;;6.01;69.72
30516;BME280;17297;54.022;10.760;2022-12-07T09:37:04;100942.88;;;6.02;69.80
30516;BME280;17297;54.022;10.760;2022-12-07T09:39:29;100934.69;;;6.04;69.84
30516;BME280;17297;54.022;10.760;2022-12-07T09:41:57;100938.19;;;6.04;69.80
30516;BME280;17297;54.022;10.760;2022-12-07T09:44:25;100928.22;;;6.06;69.59
30516;BME280;17297;54.022;10.760;2022-12-07T09:46:51;100927.19;;;6.07;69.80
30516;BME280;17297;54.022;10.760;2022-12-07T09:49:20;100916.38;;;6.09;69.83
30516;BME280;17297;54.022;10.760;2022-12-07T09:51:46;100926.88;;;6.10;69.59
30516;BME280;17297;54.022;10.760;2022-12-07T09:54:14;100922.41;;;6.11;69.58
30516;BME280;17297;54.022;10.760;2022-12-07T09:56:40;100924.06;;;6.12;69.77
30516;BME280;17297;54.022;10.760;2022-12-07T09:59:05;100921.22;;;6.13;69.57
30516;BME280;17297;54.022;10.760;2022-12-07T10:01:32;100914.22;;;6.12;69.62
30516;BME280;17297;54.022;10.760;2022-12-07T10:04:06;100919.41;;;6.14;69.48
30516;BME280;17297;54.022;10.760;2022-12-07T10:06:34;100917.56;;;6.14;69.62
30516;BME280;17297;54.022;10.760;2022-12-07T10:09:00;100909.56;;;6.14;69.47
30516;BME280;17297;54.022;10.760;2022-12-07T10:11:25;100915.56;;;6.16;69.41
30516;BME280;17297;54.022;10.760;2022-12-07T10:13:52;100917.25;;;6.17;69.56
30516;BME280;17297;54.022;10.760;2022-12-07T10:18:51;100928.78;;;6.18;69.45
30516;BME280;17297;54.022;10.760;2022-12-07T10:21:24;100922.59;;;6.17;69.22
30516;BME280;17297;54.022;10.760;2022-12-07T10:26:46;100922.59;;;6.17;69.17
30516;BME280;17297;54.022;10.760;2022-12-07T10:29:32;100926.94;;;6.18;69.28
30516;BME280;17297;54.022;10.760;2022-12-07T10:32:21;100917.91;;;6.19;69.21
30516;BME280;17297;54.022;10.760;2022-12-07T10:34:50;100916.94;;;6.20;69.20
30516;BME280;17297;54.022;10.760;2022-12-07T10:37:19;100916.09;;;6.20;69.02
30516;BME280;17297;54.022;10.760;2022-12-07T10:39:49;100913.44;;;6.20;69.11
30516;BME280;17297;54.022;10.760;2022-12-07T10:42:26;100916.94;;;6.20;69.25
30516;BME280;17297;54.022;10.760;2022-12-07T10:47:47;100917.78;;;6.21;68.88
30516;BME280;17297;54.022;10.760;2022-12-07T10:50:31;100910.59;;;6.21;69.09
30516;BME280;17297;54.022;10.760;2022-12-07T11:04:18;100900.09;;;6.28;68.94
30516;BME280;17297;54.022;10.760;2022-12-07T11:18:52;100890.59;;;6.34;68.74
30516;BME280;17297;54.022;10.760;2022-12-07T11:21:40;100885.25;;;6.34;68.43
30516;BME280;17297;54.022;10.760;2022-12-07T11:24:19;100897.47;;;6.36;68.32
30516;BME280;17297;54.022;10.760;2022-12-07T11:29:47;100885.06;;;6.35;68.30
30516;BME280;17297;54.022;10.760;2022-12-07T11:32:51;100876.09;;;6.36;68.22
30516;BME280;17297;54.022;10.760;2022-12-07T11:35:35;100872.41;;;6.37;68.16
30516;BME280;17297;54.022;10.760;2022-12-07T11:38:30;100873.09;;;6.39;68.07
30516;BME280;17297;54.022;10.760;2022-12-07T11:41:02;100865.91;;;6.40;67.88
30516;BME280;17297;54.022;10.760;2022-12-07T11:43:52;100869.25;;;6.42;67.79
30516;BME280;17297;54.022;10.760;2022-12-07T11:46:20;100855.91;;;6.42;67.76
30516;BME280;17297;54.022;10.760;2022-12-07T11:48:58;100861.25;;;6.42;67.70
30516;BME280;17297;54.022;10.760;2022-12-07T11:51:27;100867.25;;;6.44;67.58
30516;BME280;17297;54.022;10.760;2022-12-07T11:53:57;100862.91;;;6.43;67.40
30516;BME280;17297;54.022;10.760;2022-12-07T11:56:27;100851.38;;;6.42;67.31
30516;BME280;17297;54.022;10.760;2022-12-07T11:59:04;100846.88;;;6.43;67.51
30516;BME280;17297;54.022;10.760;2022-12-07T12:06:34;100836.34;;;6.41;67.20
30516;BME280;17297;54.022;10.760;2022-12-07T12:09:06;100837.19;;;6.42;67.16
30516;BME280;17297;54.022;10.760;2022-12-07T12:22:24;100819.47;;;6.41;66.78
30516;BME280;17297;54.022;10.760;2022-12-07T12:24:53;100825.63;;;6.41;66.60
30516;BME280;17297;54.022;10.760;2022-12-07T12:27:27;100823.84;;;6.42;66.69
30516;BME280;17297;54.022;10.760;2022-12-07T12:29:58;100822.00;;;6.42;66.33
30516;BME280;17297;54.022;10.760;2022-12-07T12:37:46;100812.97;;;6.43;66.37
30516;BME280;17297;54.022;10.760;2022-12-07T12:42:57;100821.81;;;6.44;66.33
30516;BME280;17297;54.022;10.760;2022-12-07T12:45:25;100824.47;;;6.44;66.11
30516;BME280;17297;54.022;10.760;2022-12-07T12:50:35;100833.34;;;6.44;66.17
30516;BME280;17297;54.022;10.760;2022-12-07T12:53:24;100841.19;;;6.46;65.82
30516;BME280;17297;54.022;10.760;2022-12-07T13:00:43;100849.38;;;6.44;65.75
30516;BME280;17297;54.022;10.760;2022-12-07T13:03:23;100843.19;;;6.44;65.80
30516;BME280;17297;54.022;10.760;2022-12-07T13:06:31;100846.88;;;6.43;65.94
30516;BME280;17297;54.022;10.760;2022-12-07T13:09:00;100844.34;;;6.41;65.80
30516;BME280;17297;54.022;10.760;2022-12-07T13:11:35;100844.53;;;6.40;65.62
30516;BME280;17297;54.022;10.760;2022-12-07T13:14:35;100856.38;;;6.37;65.54
30516;BME280;17297;54.022;10.760;2022-12-07T13:17:00;100854.03;;;6.34;65.50
30516;BME280;17297;54.022;10.760;2022-12-07T13:24:57;100858.34;;;6.27;65.51
30516;BME280;17297;54.022;10.760;2022-12-07T13:27:25;100867.53;;;6.24;65.39
30516;BME280;17297;54.022;10.760;2022-12-07T13:29:52;100864.16;;;6.22;65.23
30516;BME280;17297;54.022;10.760;2022-12-07T13:32:26;100868.03;;;6.20;65.24
30516;BME280;17297;54.022;10.760;2022-12-07T13:34:52;100876.19;;;6.18;65.17
30516;BME280;17297;54.022;10.760;2022-12-07T13:39:54;100869.66;;;6.13;65.31
30516;BME280;17297;54.022;10.760;2022-12-07T13:42:32;100868.81;;;6.12;65.31
30516;BME280;17297;54.022;10.760;2022-12-07T13:45:22;100874.47;;;6.09;65.08
30516;BME280;17297;54.022;10.760;2022-12-07T13:47:52;100871.28;;;6.06;65.16
30516;BME280;17297;54.022;10.760;2022-12-07T13:50:27;100871.63;;;6.03;65.15
30516;BME280;17297;54.022;10.760;2022-12-07T13:52:58;100877.28;;;5.99;65.22
30516;BME280;17297;54.022;10.760;2022-12-07T13:55:24;100875.75;;;5.97;65.31
30516;BME280;17297;54.022;10.760;2022-12-07T13:57:52;100875.25;;;5.93;65.08
30516;BME280;17297;54.022;10.760;2022-12-07T14:00:20;100886.91;;;5.92;65.06
30516;BME280;17297;54.022;10.760;2022-12-07T14:03:02;100881.88;;;5.89;65.43
30516;BME280;17297;54.022;10.760;2022-12-07T14:05:29;100887.22;;;5.89;65.25
30516;BME280;17297;54.022;10.760;2022-12-07T14:10:39;100889.38;;;5.86;65.31
30516;BME280;17297;54.022;10.760;2022-12-07T14:15:52;100886.16;;;5.82;65.13
30516;BME280;17297;54.022;10.760;2022-12-07T14:18:26;100890.84;;;5.80;65.40
30516;BME280;17297;54.022;10.760;2022-12-07T14:21:03;100882.81;;;5.80;65.32
30516;BME280;17297;54.022;10.760;2022-12-07T14:23:29;100877.63;;;5.78;65.45
30516;BME280;17297;54.022;10.760;2022-12-07T14:26:06;100882.44;;;5.75;65.40
30516;BME280;17297;54.022;10.760;2022-12-07T14:28:34;100880.78;;;5.74;65.12
30516;BME280;17297;54.022;10.760;2022-12-07T14:31:01;100888.28;;;5.70;65.10
30516;BME280;17297;54.022;10.760;2022-12-07T14:33:27;100882.94;;;5.70;65.21
30516;BME280;17297;54.022;10.760;2022-12-07T14:35:53;100882.25;;;5.68;65.15
30516;BME280;17297;54.022;10.760;2022-12-07T14:38:23;100884.22;;;5.66;65.18